Time;durP1;ratioP1;P1;durP2;ratioP2;P2;SDS_P1;SDS_P2;PMS_P1;PMS_P2;Temp;Humidity;BMP_temperature;BMP_pressure;BME280_temperature;BME280_humidity;BME280_pressure;Samples;Min_cycle;Max_cycle;Signal;HPM_P1;HPM_P2
2024/03/11 00:00:28;;;;;;;1.45;1.35;;;10.30;99.90;;;;;;4455372;32;20586;-66
2024/03/11 00:02:54;;;;;;;1.95;1.27;;;10.30;99.90;;;;;;4453127;32;20077;-65
2024/03/11 00:05:20;;;;;;;1.20;1.10;;;10.30;99.90;;;;;;4453382;32;20080;-65
2024/03/11 00:07:46;;;;;;;3.95;1.12;;;10.30;99.90;;;;;;4454543;32;20077;-66
2024/03/11 00:10:12;;;;;;;1.75;0.93;;;10.20;99.90;;;;;;4454491;32;20072;-65
2024/03/11 00:12:44;;;;;;;2.53;0.80;;;10.20;99.90;;;;;;4431851;32;20445;-66
2024/03/11 00:15:12;;;;;;;1.15;1.02;;;10.20;99.90;;;;;;4445913;32;20209;-66
2024/03/11 00:17:38;;;;;;;2.10;1.45;;;10.20;99.90;;;;;;4448614;32;20065;-66
2024/03/11 00:20:04;;;;;;;1.35;0.90;;;10.20;99.90;;;;;;4454627;32;20069;-66
2024/03/11 00:22:30;;;;;;;0.80;0.80;;;10.20;99.90;;;;;;4455238;32;20077;-66
2024/03/11 00:24:55;;;;;;;1.50;1.25;;;10.20;99.90;;;;;;4455040;32;20417;-66
2024/03/11 00:27:21;;;;;;;3.00;1.65;;;10.20;99.90;;;;;;4451857;32;20096;-66
2024/03/11 00:29:48;;;;;;;3.12;1.83;;;10.20;99.90;;;;;;4451153;32;20080;-66
2024/03/11 00:32:14;;;;;;;0.88;0.88;;;10.20;99.90;;;;;;4453940;32;20061;-66
2024/03/11 00:34:43;;;;;;;4.65;2.72;;;10.30;99.90;;;;;;4447537;32;20561;-66
2024/03/11 00:37:12;;;;;;;3.40;1.42;;;10.40;99.90;;;;;;4455303;32;20073;-65
2024/03/11 00:39:38;;;;;;;2.92;1.67;;;10.30;99.90;;;;;;4453689;32;20053;-66
2024/03/11 00:42:04;;;;;;;0.60;0.60;;;10.30;99.90;;;;;;4446369;32;20441;-66
2024/03/11 00:44:29;;;;;;;3.53;1.05;;;10.30;99.90;;;;;;4454671;32;20072;-66
2024/03/11 00:46:55;;;;;;;1.95;1.40;;;10.30;99.90;;;;;;4455193;32;20414;-66
2024/03/11 00:49:21;;;;;;;3.03;1.37;;;10.30;99.90;;;;;;4454921;32;20060;-66
2024/03/11 00:51:47;;;;;;;1.10;1.00;;;10.30;99.90;;;;;;4457432;32;20060;-66
2024/03/11 00:54:12;;;;;;;2.30;1.65;;;10.30;99.90;;;;;;4456913;32;20107;-66
2024/03/11 00:56:38;;;;;;;1.48;1.10;;;10.30;99.90;;;;;;4449517;32;20336;-66
2024/03/11 00:59:04;;;;;;;1.48;0.60;;;10.30;99.90;;;;;;4455897;32;20115;-66
2024/03/11 01:01:30;;;;;;;1.60;0.73;;;10.30;99.90;;;;;;4457208;32;20072;-66
2024/03/11 01:03:57;;;;;;;1.30;1.15;;;10.30;99.90;;;;;;4457548;32;20484;-66
2024/03/11 01:06:24;;;;;;;0.77;0.77;;;10.30;99.90;;;;;;4455933;32;20520;-66
2024/03/11 01:08:50;;;;;;;5.50;1.00;;;10.30;99.90;;;;;;4455735;32;20422;-66
2024/03/11 01:11:15;;;;;;;3.58;1.50;;;10.30;99.90;;;;;;4456537;32;20072;-66
2024/03/11 01:13:41;;;;;;;0.70;0.70;;;10.30;99.90;;;;;;4455494;32;20892;-66
2024/03/11 01:16:08;;;;;;;0.60;0.60;;;10.30;99.90;;;;;;4453412;32;21763;-65
2024/03/11 01:18:33;;;;;;;1.92;0.85;;;10.30;99.90;;;;;;4448185;32;20414;-66
2024/03/11 01:21:00;;;;;;;1.87;1.55;;;10.30;99.90;;;;;;4455119;32;20093;-66
2024/03/11 01:23:26;;;;;;;0.80;0.70;;;10.30;99.90;;;;;;4458291;32;20068;-66
2024/03/11 01:25:51;;;;;;;4.60;1.73;;;10.20;99.90;;;;;;4457269;32;20080;-67
2024/03/11 01:28:17;;;;;;;0.70;0.70;;;10.20;99.90;;;;;;4455432;32;20066;-66
2024/03/11 01:30:42;;;;;;;1.55;0.98;;;10.10;99.90;;;;;;4456216;32;20056;-67
2024/03/11 01:33:10;;;;;;;1.15;0.95;;;10.10;99.90;;;;;;4455846;32;20505;-65
2024/03/11 01:35:37;;;;;;;3.00;1.25;;;10.10;99.90;;;;;;4456439;32;20064;-66
2024/03/11 01:38:02;;;;;;;2.35;1.37;;;10.10;99.90;;;;;;4455337;32;20073;-65
2024/03/11 01:40:28;;;;;;;0.82;0.80;;;10.00;99.90;;;;;;4455832;32;20085;-64
2024/03/11 01:42:54;;;;;;;1.00;1.00;;;10.00;99.90;;;;;;4455888;32;20089;-62
2024/03/11 01:45:22;;;;;;;0.80;0.77;;;10.00;99.90;;;;;;4448230;32;20157;-61
2024/03/11 01:47:48;;;;;;;0.75;0.75;;;10.00;99.90;;;;;;4448551;32;20068;-64
2024/03/11 01:50:16;;;;;;;0.77;0.77;;;10.00;99.90;;;;;;4455318;32;20119;-61
2024/03/11 01:52:48;;;;;;;1.87;1.60;;;10.00;99.90;;;;;;4455294;32;20064;-62
2024/03/11 01:55:14;;;;;;;0.93;0.88;;;10.00;99.90;;;;;;4440848;32;20060;-65
2024/03/11 01:57:40;;;;;;;0.70;0.70;;;10.00;99.90;;;;;;4455897;32;20107;-64
2024/03/11 02:02:38;;;;;;;3.10;1.48;;;10.00;99.90;;;;;;4454138;32;20133;-62
2024/03/11 02:05:05;;;;;;;1.62;1.37;;;10.00;99.90;;;;;;4450826;32;20085;-65
2024/03/11 02:07:31;;;;;;;1.75;1.20;;;10.00;99.90;;;;;;4456179;32;20595;-65
2024/03/11 02:09:56;;;;;;;2.42;1.33;;;10.00;99.90;;;;;;4456029;32;20102;-67
2024/03/11 02:12:22;;;;;;;0.90;0.77;;;10.00;99.90;;;;;;4455710;32;20072;-66
2024/03/11 02:14:47;;;;;;;5.45;1.37;;;10.10;99.90;;;;;;4456622;32;20135;-65
2024/03/11 02:17:14;;;;;;;6.12;0.95;;;10.10;99.90;;;;;;4446604;32;20544;-66
2024/03/11 02:19:41;;;;;;;0.98;0.90;;;10.10;99.90;;;;;;4454331;32;20089;-66
2024/03/11 02:22:08;;;;;;;2.87;1.15;;;10.10;99.90;;;;;;4453991;32;20089;-66
2024/03/11 02:24:35;;;;;;;2.05;1.23;;;10.10;99.90;;;;;;4455509;32;20088;-66
2024/03/11 02:27:02;;;;;;;0.62;0.62;;;10.10;99.90;;;;;;4454625;32;20468;-62
2024/03/11 02:29:28;;;;;;;0.60;0.60;;;10.10;99.90;;;;;;4454997;32;20072;-62
2024/03/11 02:31:54;;;;;;;1.35;0.68;;;10.10;99.90;;;;;;4446773;32;20073;-66
2024/03/11 02:34:20;;;;;;;1.20;0.88;;;10.10;99.90;;;;;;4455630;32;20214;-66
2024/03/11 02:36:47;;;;;;;12.48;1.20;;;10.10;99.90;;;;;;4446547;32;20122;-68
2024/03/11 02:39:15;;;;;;;0.80;0.80;;;10.10;99.90;;;;;;4454347;32;20152;-66
2024/03/11 02:41:43;;;;;;;4.40;1.20;;;10.10;99.90;;;;;;4446258;32;20793;-66
2024/03/11 02:44:12;;;;;;;3.30;1.27;;;10.10;99.90;;;;;;4453398;32;20567;-66
2024/03/11 02:46:38;;;;;;;0.73;0.73;;;10.20;99.90;;;;;;4452919;32;20065;-66
2024/03/11 02:49:03;;;;;;;0.40;0.40;;;10.20;99.90;;;;;;4455074;32;20068;-65
2024/03/11 02:51:31;;;;;;;0.85;0.85;;;10.20;99.90;;;;;;4455131;32;20092;-66
2024/03/11 02:53:57;;;;;;;1.40;1.02;;;10.20;99.90;;;;;;4453518;32;20125;-66
2024/03/11 02:56:23;;;;;;;0.62;0.62;;;10.30;99.90;;;;;;4453841;32;20127;-66
2024/03/11 02:58:49;;;;;;;1.60;1.45;;;10.20;99.90;;;;;;4452090;32;20073;-67
2024/03/11 03:01:16;;;;;;;2.28;0.80;;;10.20;99.90;;;;;;4454744;32;20126;-66
2024/03/11 03:03:42;;;;;;;1.17;1.08;;;10.20;99.90;;;;;;4455111;32;20111;-67
2024/03/11 03:06:07;;;;;;;0.75;0.75;;;10.20;99.90;;;;;;4455687;32;20521;-66
2024/03/11 03:08:33;;;;;;;0.80;0.80;;;10.20;99.90;;;;;;4454107;32;20084;-66
2024/03/11 03:11:01;;;;;;;0.50;0.50;;;10.20;99.90;;;;;;4453895;32;20065;-62
2024/03/11 03:13:28;;;;;;;4.03;1.98;;;10.10;99.90;;;;;;4454810;32;20080;-63
2024/03/11 03:15:53;;;;;;;0.88;0.75;;;10.20;99.90;;;;;;4454161;32;20081;-65
2024/03/11 03:18:19;;;;;;;0.68;0.60;;;10.20;99.90;;;;;;4454423;32;20072;-66
2024/03/11 03:20:45;;;;;;;0.85;0.73;;;10.20;99.90;;;;;;4455096;32;20208;-67
2024/03/11 03:23:11;;;;;;;0.80;0.80;;;10.20;99.90;;;;;;4448283;32;20131;-66
2024/03/11 03:25:38;;;;;;;0.80;0.80;;;10.20;99.90;;;;;;4454635;32;20068;-66
2024/03/11 03:28:05;;;;;;;0.80;0.80;;;10.20;99.90;;;;;;4452833;32;20574;-66
2024/03/11 03:30:32;;;;;;;0.57;0.57;;;10.20;99.90;;;;;;4454222;32;21035;-66
2024/03/11 03:32:58;;;;;;;2.40;1.62;;;10.20;99.90;;;;;;4453336;32;20541;-66
2024/03/11 03:35:24;;;;;;;2.95;1.27;;;10.10;99.90;;;;;;4455694;32;20156;-67
2024/03/11 03:37:51;;;;;;;0.65;0.65;;;10.20;99.90;;;;;;4454550;32;20068;-67
2024/03/11 03:40:16;;;;;;;0.85;0.60;;;10.20;99.90;;;;;;4453326;32;20056;-66
2024/03/11 03:42:44;;;;;;;7.62;1.12;;;10.20;99.90;;;;;;4452607;32;20065;-66
2024/03/11 03:45:10;;;;;;;0.50;0.50;;;10.20;99.90;;;;;;4454178;32;20080;-66
2024/03/11 03:47:36;;;;;;;1.17;1.08;;;10.20;99.90;;;;;;4452541;32;20102;-66
2024/03/11 03:50:02;;;;;;;0.85;0.73;;;10.20;99.90;;;;;;4453969;32;20060;-66
2024/03/11 03:52:29;;;;;;;2.72;1.52;;;10.20;99.90;;;;;;4454334;32;20561;-67
2024/03/11 03:54:54;;;;;;;6.47;1.20;;;10.20;99.90;;;;;;4453890;32;20085;-66
2024/03/11 03:57:21;;;;;;;1.95;1.55;;;10.20;99.90;;;;;;4454078;32;20415;-66
2024/03/11 03:59:48;;;;;;;2.87;1.80;;;10.10;99.90;;;;;;4452531;32;20514;-66
2024/03/11 04:02:13;;;;;;;0.85;0.60;;;10.20;99.90;;;;;;4452578;32;20442;-66
2024/03/11 04:04:40;;;;;;;1.17;1.00;;;10.20;99.90;;;;;;4454037;32;20068;-65
2024/03/11 04:07:07;;;;;;;7.82;1.40;;;10.20;99.90;;;;;;4454569;32;20472;-64
2024/03/11 04:09:33;;;;;;;4.60;1.35;;;10.20;99.90;;;;;;4454638;32;20068;-66
2024/03/11 04:11:58;;;;;;;2.55;0.73;;;10.20;99.90;;;;;;4452863;32;20134;-66
2024/03/11 04:14:24;;;;;;;0.65;0.65;;;10.20;99.90;;;;;;4455129;32;20080;-66
2024/03/11 04:16:49;;;;;;;0.80;0.65;;;10.20;99.90;;;;;;4454001;32;20085;-66
2024/03/11 04:19:15;;;;;;;2.25;1.52;;;10.20;99.90;;;;;;4453975;32;20452;-66
2024/03/11 04:21:41;;;;;;;1.17;0.55;;;10.20;99.90;;;;;;4453468;32;20060;-66
2024/03/11 04:24:06;;;;;;;1.05;0.90;;;10.20;99.90;;;;;;4455871;32;20419;-66
2024/03/11 04:26:33;;;;;;;0.43;0.43;;;10.20;99.90;;;;;;4452726;32;20061;-66
2024/03/11 04:28:59;;;;;;;2.05;1.27;;;10.20;99.90;;;;;;4449072;32;20463;-64
2024/03/11 04:31:25;;;;;;;1.37;1.10;;;10.20;99.90;;;;;;4454413;32;20072;-65
2024/03/11 04:33:51;;;;;;;2.90;1.85;;;10.10;99.90;;;;;;4453430;32;20077;-64
2024/03/11 04:36:17;;;;;;;1.35;1.23;;;10.20;99.90;;;;;;4454753;32;20422;-66
2024/03/11 04:38:44;;;;;;;0.93;0.82;;;10.20;99.90;;;;;;4454396;32;20060;-64
2024/03/11 04:41:09;;;;;;;4.40;2.05;;;10.20;99.90;;;;;;4453476;32;20523;-66
2024/03/11 04:43:36;;;;;;;4.40;2.45;;;10.20;99.90;;;;;;4454999;32;20072;-67
2024/03/11 04:46:02;;;;;;;0.75;0.75;;;10.10;99.90;;;;;;4453952;32;20728;-66
2024/03/11 04:48:28;;;;;;;0.75;0.75;;;10.10;99.90;;;;;;4454626;32;20566;-65
2024/03/11 04:50:53;;;;;;;2.45;0.90;;;10.10;99.90;;;;;;4453591;32;20064;-66
2024/03/11 04:53:19;;;;;;;1.48;0.93;;;10.10;99.90;;;;;;4446771;32;20136;-66
2024/03/11 04:55:45;;;;;;;2.55;1.17;;;10.10;99.90;;;;;;4453265;32;20061;-66
2024/03/11 04:58:10;;;;;;;5.68;2.47;;;10.20;99.90;;;;;;4453288;32;20123;-66
2024/03/11 05:00:36;;;;;;;0.88;0.88;;;10.20;99.90;;;;;;4447564;32;20076;-66
2024/03/11 05:03:03;;;;;;;6.50;1.05;;;10.20;99.90;;;;;;4452733;32;20081;-65
2024/03/11 05:05:35;;;;;;;0.82;0.82;;;10.20;99.90;;;;;;4447306;32;20123;-66
2024/03/11 05:08:01;;;;;;;1.62;0.88;;;10.20;99.90;;;;;;4454542;32;20084;-65
2024/03/11 05:10:27;;;;;;;0.85;0.85;;;10.20;99.90;;;;;;4454223;32;20068;-66
2024/03/11 05:12:52;;;;;;;0.70;0.70;;;10.20;99.90;;;;;;4453140;32;20548;-66
2024/03/11 05:15:18;;;;;;;2.83;1.33;;;10.20;99.90;;;;;;4452962;32;20321;-66
2024/03/11 05:17:44;;;;;;;1.58;1.02;;;10.20;99.90;;;;;;4454466;32;20112;-66
2024/03/11 05:20:11;;;;;;;3.35;1.33;;;10.20;99.90;;;;;;4452476;32;20084;-65
2024/03/11 05:22:37;;;;;;;5.57;1.55;;;10.30;99.90;;;;;;4445270;32;20145;-66
2024/03/11 05:25:06;;;;;;;0.45;0.45;;;10.20;99.90;;;;;;4452417;32;21155;-66
2024/03/11 05:27:32;;;;;;;0.80;0.77;;;10.20;99.90;;;;;;4447901;32;20069;-66
2024/03/11 05:29:58;;;;;;;0.65;0.57;;;10.20;99.90;;;;;;4451471;32;20081;-66
2024/03/11 05:32:23;;;;;;;7.12;1.55;;;10.20;99.90;;;;;;4456613;32;20065;-64
2024/03/11 05:34:49;;;;;;;2.17;1.35;;;10.20;99.90;;;;;;4455101;32;20084;-64
2024/03/11 05:37:15;;;;;;;11.45;1.27;;;10.20;99.90;;;;;;4458373;32;20056;-64
2024/03/11 05:39:40;;;;;;;0.70;0.70;;;10.30;99.90;;;;;;4458135;32;20138;-65
2024/03/11 05:42:08;;;;;;;0.65;0.65;;;10.30;99.90;;;;;;4448752;32;20070;-65
2024/03/11 05:44:34;;;;;;;5.53;1.85;;;10.30;99.90;;;;;;4457484;32;20472;-65
2024/03/11 05:47:00;;;;;;;0.52;0.52;;;10.30;99.90;;;;;;4458129;32;20084;-66
2024/03/11 05:49:28;;;;;;;0.45;0.45;;;10.30;99.90;;;;;;4455046;32;20060;-65
2024/03/11 05:51:55;;;;;;;0.65;0.65;;;10.30;99.90;;;;;;4451388;32;20599;-67
2024/03/11 05:54:21;;;;;;;17.83;1.02;;;10.30;99.90;;;;;;4454346;32;20813;-67
2024/03/11 05:56:53;;;;;;;0.80;0.80;;;10.40;99.90;;;;;;4451883;32;20123;-67
2024/03/11 05:59:21;;;;;;;2.22;1.20;;;10.40;99.90;;;;;;4452524;32;20072;-67
2024/03/11 06:01:48;;;;;;;6.05;1.12;;;10.30;99.90;;;;;;4455266;32;21368;-67
2024/03/11 06:04:14;;;;;;;1.27;1.17;;;10.30;99.90;;;;;;4455587;32;20136;-65
2024/03/11 06:06:44;;;;;;;1.92;1.10;;;10.30;99.90;;;;;;4438639;32;20806;-67
2024/03/11 06:09:11;;;;;;;1.17;1.12;;;10.30;99.90;;;;;;4450824;32;20077;-67
2024/03/11 06:11:40;;;;;;;0.70;0.60;;;10.40;99.90;;;;;;4451518;32;20069;-67
2024/03/11 06:14:06;;;;;;;1.17;0.85;;;10.40;99.90;;;;;;4436627;32;20149;-67
2024/03/11 06:16:33;;;;;;;3.45;1.02;;;10.40;99.90;;;;;;4443487;32;20196;-67
2024/03/11 06:19:00;;;;;;;1.60;0.90;;;10.30;99.90;;;;;;4451556;32;20123;-67
2024/03/11 06:21:26;;;;;;;0.40;0.40;;;10.40;99.90;;;;;;4434952;32;20092;-67
2024/03/11 06:23:51;;;;;;;1.00;0.93;;;10.40;99.90;;;;;;4445394;32;20081;-67
2024/03/11 06:26:17;;;;;;;0.80;0.80;;;10.40;99.90;;;;;;4438945;32;20152;-66
2024/03/11 06:28:42;;;;;;;1.25;0.90;;;10.40;99.90;;;;;;4439382;32;20089;-67
2024/03/11 06:31:08;;;;;;;0.98;0.98;;;10.40;99.90;;;;;;4445763;32;20172;-66
2024/03/11 06:33:35;;;;;;;1.67;1.12;;;10.30;99.90;;;;;;4434756;32;20097;-66
2024/03/11 06:36:01;;;;;;;26.95;1.08;;;10.30;99.90;;;;;;4443025;32;20093;-66
2024/03/11 06:38:27;;;;;;;2.25;1.25;;;10.40;99.90;;;;;;4442936;32;20639;-66
2024/03/11 06:40:53;;;;;;;6.55;2.60;;;10.50;99.90;;;;;;4438988;32;20143;-65
2024/03/11 06:43:18;;;;;;;2.70;1.58;;;10.50;99.90;;;;;;4438140;32;20068;-65
2024/03/11 06:45:46;;;;;;;0.73;0.68;;;10.50;99.90;;;;;;4440687;32;20134;-65
2024/03/11 06:48:11;;;;;;;2.03;1.23;;;10.50;99.90;;;;;;4433302;32;20512;-66
2024/03/11 06:50:38;;;;;;;5.05;0.80;;;10.50;99.90;;;;;;4439784;32;20101;-66
2024/03/11 06:53:06;;;;;;;1.85;1.05;;;10.50;99.90;;;;;;4426884;32;21004;-66
2024/03/11 06:55:32;;;;;;;0.70;0.70;;;10.50;99.90;;;;;;4423621;32;21097;-66
2024/03/11 06:57:57;;;;;;;2.35;1.10;;;10.50;99.90;;;;;;4425830;32;20116;-66
2024/03/11 07:00:25;;;;;;;0.57;0.57;;;10.50;99.90;;;;;;4422408;32;20080;-66
2024/03/11 07:02:51;;;;;;;0.52;0.52;;;10.50;99.90;;;;;;4407918;32;20726;-66
2024/03/11 07:05:18;;;;;;;1.37;1.12;;;10.50;99.90;;;;;;4411874;32;20650;-67
2024/03/11 07:07:45;;;;;;;1.48;1.10;;;10.60;99.90;;;;;;4408871;32;20675;-66
2024/03/11 07:10:12;;;;;;;2.20;1.15;;;10.60;99.90;;;;;;4417187;32;22284;-66
2024/03/11 07:12:42;;;;;;;0.57;0.57;;;10.50;99.90;;;;;;4421083;32;21417;-66
2024/03/11 07:15:09;;;;;;;1.12;1.00;;;10.60;99.90;;;;;;4422201;32;20139;-65
2024/03/11 07:17:34;;;;;;;0.75;0.75;;;10.60;99.90;;;;;;4419825;32;20073;-66
2024/03/11 07:20:00;;;;;;;0.75;0.75;;;10.60;99.90;;;;;;4420669;32;20084;-67
2024/03/11 07:22:26;;;;;;;0.60;0.60;;;10.60;99.90;;;;;;4415079;32;20169;-66
2024/03/11 07:24:51;;;;;;;0.60;0.60;;;10.60;99.90;;;;;;4408858;32;20116;-67
2024/03/11 07:27:17;;;;;;;1.05;0.80;;;10.60;99.90;;;;;;4396691;32;20188;-67
2024/03/11 07:29:43;;;;;;;0.57;0.57;;;10.70;99.90;;;;;;4408775;32;20637;-67
2024/03/11 07:32:11;;;;;;;0.60;0.60;;;10.80;99.90;;;;;;4399083;32;20183;-67
2024/03/11 07:34:39;;;;;;;4.22;0.93;;;10.80;99.90;;;;;;4383349;32;20910;-67
2024/03/11 07:37:05;;;;;;;6.57;1.37;;;10.80;99.90;;;;;;4383021;32;20097;-67
2024/03/11 07:39:31;;;;;;;0.95;0.95;;;10.90;99.90;;;;;;4394321;32;20084;-67
2024/03/11 07:41:57;;;;;;;0.65;0.65;;;10.90;99.90;;;;;;4400833;32;20620;-67
2024/03/11 07:44:24;;;;;;;2.12;1.30;;;10.90;99.90;;;;;;4407324;32;20387;-67
2024/03/11 07:46:50;;;;;;;1.73;1.12;;;10.90;99.90;;;;;;4411338;32;20170;-67
2024/03/11 07:49:16;;;;;;;1.58;0.88;;;10.90;99.90;;;;;;4410388;32;20868;-67
2024/03/11 07:51:41;;;;;;;1.42;1.33;;;10.90;99.90;;;;;;4422623;32;20950;-66
2024/03/11 07:54:08;;;;;;;1.73;1.35;;;11.00;99.90;;;;;;4417140;32;20706;-66
2024/03/11 07:56:34;;;;;;;2.62;1.05;;;11.00;99.90;;;;;;4421768;32;20093;-67
2024/03/11 07:59:00;;;;;;;1.08;0.88;;;11.00;99.90;;;;;;4409919;32;20107;-66
2024/03/11 08:01:26;;;;;;;0.82;0.82;;;11.00;99.90;;;;;;4404598;32;20100;-67
2024/03/11 08:03:52;;;;;;;0.70;0.70;;;11.00;99.90;;;;;;4409777;32;20097;-67
2024/03/11 08:06:18;;;;;;;3.45;1.42;;;10.90;99.90;;;;;;4407509;32;20090;-67
2024/03/11 08:08:43;;;;;;;2.87;1.12;;;11.00;99.90;;;;;;4403123;32;20454;-67
2024/03/11 08:11:10;;;;;;;0.90;0.82;;;10.90;99.90;;;;;;4401952;32;21002;-67
2024/03/11 08:13:35;;;;;;;1.98;1.08;;;11.00;99.90;;;;;;4406290;32;20621;-68
2024/03/11 08:16:01;;;;;;;0.95;0.95;;;11.00;99.90;;;;;;4414240;32;20088;-67
2024/03/11 08:18:27;;;;;;;4.18;2.33;;;10.90;99.90;;;;;;4406466;32;20462;-67
2024/03/11 08:20:53;;;;;;;0.85;0.85;;;11.10;99.90;;;;;;4415116;32;20103;-67
2024/03/11 08:23:19;;;;;;;2.05;1.10;;;11.10;99.90;;;;;;4412531;32;20097;-67
2024/03/11 08:25:47;;;;;;;2.42;1.70;;;11.00;99.90;;;;;;4405316;32;20081;-68
2024/03/11 08:28:14;;;;;;;1.80;1.37;;;11.10;99.90;;;;;;4396141;32;20077;-67
2024/03/11 08:30:41;;;;;;;7.90;1.30;;;11.00;99.90;;;;;;4404014;32;21051;-67
2024/03/11 08:33:07;;;;;;;1.45;1.12;;;11.00;99.90;;;;;;4413189;32;20540;-66
2024/03/11 08:35:32;;;;;;;3.20;1.40;;;11.10;99.90;;;;;;4411786;32;20081;-68
2024/03/11 08:37:58;;;;;;;23.30;1.83;;;11.10;99.90;;;;;;4403897;32;20072;-67
2024/03/11 08:40:25;;;;;;;42.20;1.90;;;11.10;99.90;;;;;;4405522;32;20088;-67
2024/03/11 08:42:51;;;;;;;2.50;1.00;;;11.00;99.90;;;;;;4414708;32;20117;-68
2024/03/11 08:45:18;;;;;;;0.88;0.88;;;11.00;99.90;;;;;;4420118;32;20106;-68
2024/03/11 08:47:46;;;;;;;1.08;0.98;;;11.00;99.90;;;;;;4424302;32;20084;-67
2024/03/11 08:50:15;;;;;;;1.20;1.10;;;11.10;99.90;;;;;;4403170;32;20583;-67
2024/03/11 08:52:43;;;;;;;2.40;1.75;;;11.20;99.90;;;;;;4409528;32;20856;-67
2024/03/11 08:55:13;;;;;;;2.60;1.33;;;11.10;99.90;;;;;;4403697;32;20138;-68
2024/03/11 08:57:40;;;;;;;3.17;1.45;;;11.00;99.90;;;;;;4404873;32;22072;-66
2024/03/11 09:02:36;;;;;;;1.30;1.20;;;11.20;99.90;;;;;;4419101;32;20066;-66
2024/03/11 09:05:03;;;;;;;1.50;1.40;;;11.10;99.90;;;;;;4418239;32;20147;-67
2024/03/11 09:07:28;;;;;;;2.87;1.70;;;11.10;99.90;;;;;;4416610;32;20717;-68
2024/03/11 09:09:57;;;;;;;5.62;1.73;;;11.20;99.90;;;;;;4418767;32;20171;-66
2024/03/11 09:12:23;;;;;;;7.87;1.25;;;11.20;99.90;;;;;;4412014;32;20093;-66
2024/03/11 09:14:48;;;;;;;1.42;0.90;;;11.30;99.90;;;;;;4416388;32;20219;-69
2024/03/11 09:17:17;;;;;;;10.32;1.77;;;11.30;99.90;;;;;;4418324;32;20786;-67
2024/03/11 09:19:42;;;;;;;3.62;1.23;;;11.40;99.90;;;;;;4409263;32;20093;-66
2024/03/11 09:22:07;;;;;;;1.17;0.90;;;11.40;99.90;;;;;;4413396;32;20682;-66
2024/03/11 09:24:33;;;;;;;1.40;0.82;;;11.40;99.90;;;;;;4402079;32;20960;-66
2024/03/11 09:27:02;;;;;;;3.97;1.42;;;11.40;99.90;;;;;;4404072;32;20608;-66
2024/03/11 09:29:29;;;;;;;1.62;1.20;;;11.40;99.90;;;;;;4407236;32;20093;-66
2024/03/11 09:31:55;;;;;;;2.72;1.48;;;11.50;99.90;;;;;;4398822;32;20093;-66
2024/03/11 09:34:20;;;;;;;1.92;1.15;;;11.50;99.90;;;;;;4423931;32;20717;-65
2024/03/11 09:36:46;;;;;;;1.70;1.23;;;11.60;99.90;;;;;;4418887;32;20076;-67
2024/03/11 09:39:11;;;;;;;1.92;1.27;;;11.70;99.90;;;;;;4421245;32;20100;-65
2024/03/11 09:41:45;;;;;;;3.90;1.62;;;11.80;99.90;;;;;;4428821;32;20093;-66
2024/03/11 09:44:15;;;;;;;2.78;1.25;;;11.80;99.90;;;;;;4410752;32;20069;-68
2024/03/11 09:46:42;;;;;;;2.42;1.40;;;11.80;99.90;;;;;;4415698;32;20100;-67
2024/03/11 09:49:08;;;;;;;1.02;1.00;;;11.90;99.90;;;;;;4403056;32;20170;-67
2024/03/11 09:51:34;;;;;;;0.82;0.77;;;11.90;99.90;;;;;;4414405;32;20076;-67
2024/03/11 09:54:02;;;;;;;2.80;1.62;;;11.90;99.90;;;;;;4426548;32;20090;-66
2024/03/11 09:56:27;;;;;;;0.77;0.77;;;11.90;99.90;;;;;;4428294;32;20645;-67
2024/03/11 09:58:57;;;;;;;0.93;0.80;;;11.90;99.90;;;;;;4420035;32;20069;-67
2024/03/11 10:01:30;;;;;;;3.25;1.40;;;11.90;99.90;;;;;;4421122;32;20101;-67
2024/03/11 10:03:58;;;;;;;0.98;0.90;;;12.10;99.90;;;;;;4428936;32;20514;-67
2024/03/11 10:06:24;;;;;;;1.05;1.00;;;12.10;99.90;;;;;;4424272;32;21486;-67
2024/03/11 10:08:50;;;;;;;1.00;0.95;;;12.00;99.90;;;;;;4430016;32;20080;-67
2024/03/11 10:11:20;;;;;;;3.87;1.83;;;12.10;99.90;;;;;;4427783;32;20158;-65
2024/03/11 10:13:46;;;;;;;1.27;1.17;;;12.20;99.90;;;;;;4431293;32;20081;-66
2024/03/11 10:16:21;;;;;;;1.30;1.05;;;12.40;99.90;;;;;;4426772;32;20568;-66
2024/03/11 10:19:20;;;;;;;2.75;1.65;;;12.60;99.90;;;;;;4426280;32;21042;-65
2024/03/11 10:21:48;;;;;;;1.80;1.00;;;12.60;99.90;;;;;;4417808;32;20544;-66
2024/03/11 10:24:15;;;;;;;2.03;1.00;;;12.50;99.90;;;;;;4418666;32;20073;-64
2024/03/11 10:26:41;;;;;;;3.35;1.25;;;12.50;99.90;;;;;;4420715;32;20113;-65
2024/03/11 10:29:08;;;;;;;2.97;1.12;;;12.50;99.90;;;;;;4417925;32;20089;-66
2024/03/11 10:31:35;;;;;;;2.30;0.90;;;12.60;99.90;;;;;;4413043;32;20404;-67
2024/03/11 10:34:10;;;;;;;1.15;1.12;;;12.50;99.90;;;;;;4418229;32;20104;-65
2024/03/11 10:36:39;;;;;;;1.90;1.20;;;12.70;99.90;;;;;;4416768;32;20660;-65
2024/03/11 10:41:50;;;;;;;0.82;0.70;;;12.80;99.90;;;;;;4417817;32;20710;-66
2024/03/11 10:44:23;;;;;;;2.80;1.17;;;12.90;99.90;;;;;;4407993;32;20439;-65
2024/03/11 10:46:48;;;;;;;1.05;0.80;;;12.90;99.90;;;;;;4417037;32;20065;-64
2024/03/11 10:49:14;;;;;;;0.77;0.77;;;13.10;99.90;;;;;;4414047;32;21366;-67
2024/03/11 10:51:45;;;;;;;2.95;0.90;;;13.00;99.90;;;;;;4416567;32;20571;-63
2024/03/11 10:54:15;;;;;;;0.77;0.77;;;13.00;99.90;;;;;;4421720;32;20069;-65
2024/03/11 10:56:44;;;;;;;1.12;1.05;;;13.20;99.90;;;;;;4415499;32;20052;-64
2024/03/11 10:59:14;;;;;;;0.70;0.70;;;13.40;99.90;;;;;;4409732;32;20182;-61
2024/03/11 11:04:19;;;;;;;3.25;1.08;;;13.50;99.90;;;;;;4413364;32;20167;-63
2024/03/11 11:06:46;;;;;;;0.93;0.93;;;13.80;99.90;;;;;;4414051;32;20269;-63
2024/03/11 11:09:14;;;;;;;2.28;1.60;;;14.20;99.90;;;;;;4411468;32;20087;-64
2024/03/11 11:11:41;;;;;;;1.25;1.05;;;14.50;99.90;;;;;;4417864;32;20112;-66
2024/03/11 11:14:11;;;;;;;6.87;2.15;;;14.50;99.90;;;;;;4424070;32;20601;-65
2024/03/11 11:16:38;;;;;;;1.15;1.05;;;14.20;99.90;;;;;;4421234;32;20077;-64
2024/03/11 11:19:05;;;;;;;1.90;1.33;;;14.10;99.90;;;;;;4425980;32;20117;-63
2024/03/11 11:21:31;;;;;;;0.77;0.77;;;13.90;99.90;;;;;;4423265;32;20525;-64
2024/03/11 11:24:22;;;;;;;3.33;0.95;;;13.80;99.90;;;;;;4429841;32;20096;-62
2024/03/11 11:26:48;;;;;;;;;;;13.80;99.90;;;;;;4426475;32;20085;-64
2024/03/11 11:29:21;;;;;;;1.30;1.00;;;13.90;99.90;;;;;;4431259;32;19972;-62
2024/03/11 11:32:08;;;;;;;0.90;0.90;;;13.90;99.90;;;;;;4431225;32;20068;-64
2024/03/11 11:34:50;;;;;;;10.45;1.42;;;13.80;99.90;;;;;;4432858;32;20454;-62
2024/03/11 11:37:22;;;;;;;2.92;1.67;;;13.80;99.90;;;;;;4423233;32;20081;-65
2024/03/11 11:39:50;;;;;;;1.05;0.98;;;13.90;99.90;;;;;;4431602;32;20096;-63
2024/03/11 11:42:37;;;;;;;0.93;0.90;;;13.70;99.90;;;;;;4427439;32;20076;-63
2024/03/11 11:45:06;;;;;;;1.25;0.98;;;13.60;99.90;;;;;;4422415;32;20107;-62
2024/03/11 11:47:32;;;;;;;0.60;0.60;;;13.60;99.90;;;;;;4428545;32;20611;-62
2024/03/11 11:49:59;;;;;;;0.65;0.65;;;13.40;99.90;;;;;;4433661;32;20120;-62
2024/03/11 11:52:26;;;;;;;1.10;1.00;;;13.40;99.90;;;;;;4428542;32;93533;-65
2024/03/11 11:54:53;;;;;;;67.18;3.28;;;13.40;99.90;;;;;;4408963;32;20616;-65
2024/03/11 11:57:21;;;;;;;1.75;0.77;;;13.50;99.90;;;;;;4413976;32;20090;-65
2024/03/11 11:59:56;;;;;;;0.93;0.90;;;13.40;99.90;;;;;;4415125;32;20556;-62
2024/03/11 12:02:25;;;;;;;1.70;1.10;;;13.40;99.90;;;;;;4413959;32;20496;-66
2024/03/11 12:04:56;;;;;;;4.05;0.90;;;13.50;99.90;;;;;;4420028;32;20076;-65
2024/03/11 12:07:24;;;;;;;0.80;0.80;;;13.50;99.90;;;;;;4422091;32;20200;-64
2024/03/11 12:10:01;;;;;;;0.68;0.68;;;13.50;99.90;;;;;;4412735;32;20145;-64
2024/03/11 12:12:32;;;;;;;1.12;0.88;;;13.30;99.90;;;;;;4404744;32;20081;-65
2024/03/11 12:14:58;;;;;;;0.77;0.77;;;13.30;99.90;;;;;;4416485;32;20489;-64
2024/03/11 12:17:25;;;;;;;1.37;1.08;;;13.30;99.90;;;;;;4419116;32;20104;-65
2024/03/11 12:20:19;;;;;;;5.78;1.10;;;13.30;99.90;;;;;;4411972;32;20143;-65
2024/03/11 12:22:44;;;;;;;3.00;1.17;;;13.30;99.90;;;;;;4409060;32;20421;-65
2024/03/11 12:25:13;;;;;;;2.15;1.05;;;13.20;99.90;;;;;;4411558;32;20794;-66
2024/03/11 12:27:42;;;;;;;1.12;0.90;;;13.30;99.90;;;;;;4412870;32;20092;-63
2024/03/11 12:30:14;;;;;;;0.60;0.60;;;13.30;99.90;;;;;;4409004;32;20472;-67
2024/03/11 12:32:40;;;;;;;0.70;0.70;;;13.40;99.90;;;;;;4413896;32;20933;-66
2024/03/11 12:35:12;;;;;;;0.80;0.80;;;13.50;99.90;;;;;;4409546;32;20104;-65
2024/03/11 12:37:42;;;;;;;0.62;0.62;;;13.70;99.90;;;;;;4416478;32;20377;-65
2024/03/11 12:40:18;;;;;;;1.23;0.70;;;13.90;99.90;;;;;;4422728;32;20105;-64
2024/03/11 12:42:45;;;;;;;0.65;0.65;;;13.80;99.90;;;;;;4419523;32;20105;-66
2024/03/11 12:45:11;;;;;;;1.23;1.12;;;13.60;99.90;;;;;;4407436;32;20092;-66
2024/03/11 12:47:36;;;;;;;0.73;0.73;;;13.70;99.90;;;;;;4405050;32;20763;-63
2024/03/11 12:50:08;;;;;;;0.82;0.80;;;13.80;99.90;;;;;;4411433;32;20112;-63
2024/03/11 12:52:34;;;;;;;0.90;0.88;;;14.00;99.90;;;;;;4406998;32;20748;-63
2024/03/11 12:55:11;;;;;;;0.60;0.60;;;14.10;99.90;;;;;;4415979;32;20505;-62
2024/03/11 12:57:38;;;;;;;0.60;0.60;;;14.10;99.90;;;;;;4405747;32;20104;-64